createdAt,value
2023-03-06T00:00:43.239Z,13.50
2023-03-06T00:03:10.416Z,11.77
2023-03-06T00:05:37.477Z,12.43
2023-03-06T00:08:04.828Z,11.45
2023-03-06T00:10:32.537Z,13.00
2023-03-06T00:13:02.118Z,11.55
2023-03-06T00:15:29.721Z,12.70
2023-03-06T00:17:56.719Z,11.93
2023-03-06T00:20:24.443Z,12.30
2023-03-06T00:22:51.793Z,11.68
2023-03-06T00:25:21.664Z,11.70
2023-03-06T00:27:49.702Z,12.98
2023-03-06T00:30:19.614Z,11.35
2023-03-06T00:32:46.974Z,12.05
2023-03-06T00:35:15.248Z,12.60
2023-03-06T00:37:43.931Z,12.40
2023-03-06T00:40:14.628Z,13.73
2023-03-06T00:42:41.684Z,12.45
2023-03-06T00:45:09.612Z,12.48
2023-03-06T00:47:36.933Z,12.73
2023-03-06T00:50:04.617Z,12.85
2023-03-06T00:52:31.742Z,12.93
2023-03-06T00:54:58.728Z,12.27
2023-03-06T00:57:25.924Z,13.40
2023-03-06T00:59:53.159Z,13.38
2023-03-06T01:02:21.860Z,12.88
2023-03-06T01:04:48.888Z,12.73
2023-03-06T01:07:15.850Z,13.00
2023-03-06T01:09:44.395Z,12.48
2023-03-06T01:12:11.543Z,12.65
2023-03-06T01:14:39.117Z,12.27
2023-03-06T01:17:06.128Z,13.07
2023-03-06T01:19:33.045Z,13.45
2023-03-06T01:22:00.095Z,13.20
2023-03-06T01:24:27.066Z,14.20
2023-03-06T01:26:56.639Z,12.57
2023-03-06T01:29:23.636Z,12.90
2023-03-06T01:31:50.887Z,13.80
2023-03-06T01:34:18.282Z,13.68
2023-03-06T01:36:45.543Z,13.20
2023-03-06T01:39:12.502Z,13.82
2023-03-06T01:41:39.460Z,14.00
2023-03-06T01:44:06.565Z,13.45
2023-03-06T01:46:42.441Z,12.90
2023-03-06T01:49:15.423Z,12.65
2023-03-06T01:51:55.787Z,13.25
2023-03-06T01:54:31.167Z,11.90
2023-03-06T01:57:04.168Z,13.35
2023-03-06T01:59:35.409Z,13.70
2023-03-06T02:02:03.836Z,13.63
2023-03-06T02:04:31.857Z,13.38
2023-03-06T02:07:00.606Z,12.52
2023-03-06T02:09:30.305Z,12.88
2023-03-06T02:11:57.890Z,13.85
2023-03-06T02:14:25.096Z,13.50
2023-03-06T02:16:52.657Z,12.95
2023-03-06T02:19:32.768Z,12.60
2023-03-06T02:22:00.494Z,13.93
2023-03-06T02:24:33.494Z,12.43
2023-03-06T02:27:03.051Z,13.02
2023-03-06T02:29:32.024Z,14.07
2023-03-06T02:32:02.416Z,13.23
2023-03-06T02:34:29.611Z,12.85
2023-03-06T02:37:02.765Z,12.98
2023-03-06T02:39:33.812Z,13.80
2023-03-06T02:42:01.053Z,12.43
2023-03-06T02:44:33.086Z,13.35
2023-03-06T02:47:00.121Z,12.45
2023-03-06T02:49:27.089Z,13.05
2023-03-06T02:51:54.095Z,13.77
2023-03-06T02:54:21.104Z,13.15
2023-03-06T02:56:48.177Z,12.48
2023-03-06T02:59:15.072Z,12.63
2023-03-06T03:01:42.033Z,12.80
2023-03-06T03:04:09.259Z,12.43
2023-03-06T03:06:37.441Z,14.18
2023-03-06T03:09:04.631Z,13.05
2023-03-06T03:11:31.587Z,13.45
2023-03-06T03:13:59.145Z,13.30
2023-03-06T03:16:28.232Z,13.40
2023-03-06T03:18:58.474Z,14.02
2023-03-06T03:21:26.386Z,14.18
2023-03-06T03:23:55.040Z,16.50
2023-03-06T03:26:22.931Z,13.07
2023-03-06T03:28:57.830Z,13.35
2023-03-06T03:31:24.933Z,14.13
2023-03-06T03:33:52.719Z,13.63
2023-03-06T03:36:21.561Z,13.77
2023-03-06T03:38:49.361Z,12.35
2023-03-06T03:41:16.688Z,13.32
2023-03-06T03:43:43.688Z,13.85
2023-03-06T03:46:11.498Z,12.88
2023-03-06T03:48:39.240Z,14.15
2023-03-06T03:51:13.187Z,13.30
2023-03-06T03:53:44.958Z,13.50
2023-03-06T03:56:14.431Z,12.95
2023-03-06T03:58:50.706Z,12.93
2023-03-06T04:01:18.212Z,12.98
2023-03-06T04:03:45.256Z,12.82
2023-03-06T04:06:14.989Z,13.93
2023-03-06T04:08:42.421Z,14.32
2023-03-06T04:11:09.934Z,14.48
2023-03-06T04:13:37.123Z,15.75
2023-03-06T04:16:06.199Z,18.38
2023-03-06T04:18:35.303Z,18.45
2023-03-06T04:21:05.718Z,18.13
2023-03-06T04:23:33.152Z,18.05
2023-03-06T04:26:00.369Z,16.35
2023-03-06T04:28:27.864Z,15.23
2023-03-06T04:30:55.114Z,16.85
2023-03-06T04:33:23.078Z,13.38
2023-03-06T04:35:50.753Z,13.68
2023-03-06T04:38:23.209Z,12.93
2023-03-06T04:40:50.242Z,13.55
2023-03-06T04:43:17.486Z,13.25
2023-03-06T04:45:44.801Z,12.23
2023-03-06T04:48:18.454Z,13.38
2023-03-06T04:50:45.921Z,13.27
2023-03-06T04:53:14.622Z,12.88
2023-03-06T04:55:41.763Z,12.88
2023-03-06T04:58:08.725Z,13.18
2023-03-06T05:00:35.731Z,12.77
2023-03-06T05:03:02.826Z,13.57
2023-03-06T05:05:30.073Z,13.15
2023-03-06T05:07:57.121Z,13.07
2023-03-06T05:10:24.363Z,14.65
2023-03-06T05:12:51.455Z,14.40
2023-03-06T05:15:18.782Z,14.23
2023-03-06T05:17:47.552Z,13.82
2023-03-06T05:20:15.872Z,13.80
2023-03-06T05:22:44.093Z,13.73
2023-03-06T05:25:11.423Z,13.85
2023-03-06T05:27:38.737Z,14.40
2023-03-06T05:30:10.603Z,14.40
2023-03-06T05:32:38.060Z,13.95
2023-03-06T05:35:06.373Z,13.85
2023-03-06T05:37:34.160Z,14.02
2023-03-06T05:40:01.279Z,13.73
2023-03-06T05:42:31.065Z,14.55
2023-03-06T05:44:58.063Z,14.63
2023-03-06T05:47:25.091Z,14.98
2023-03-06T05:49:51.951Z,14.57
2023-03-06T05:52:18.985Z,14.10
2023-03-06T05:54:50.638Z,14.52
2023-03-06T05:57:19.933Z,14.57
2023-03-06T05:59:47.815Z,14.32
2023-03-06T06:02:15.306Z,15.38
2023-03-06T06:04:42.287Z,14.57
2023-03-06T06:07:13.556Z,13.65
2023-03-06T06:09:40.816Z,14.38
2023-03-06T06:12:08.105Z,15.40
2023-03-06T06:14:35.218Z,15.25
2023-03-06T06:17:02.353Z,14.02
2023-03-06T06:19:31.047Z,14.15
2023-03-06T06:21:58.200Z,14.88
2023-03-06T06:24:26.861Z,13.63
2023-03-06T06:26:56.022Z,13.95
2023-03-06T06:29:23.984Z,13.60
2023-03-06T06:31:51.538Z,13.38
2023-03-06T06:34:19.125Z,12.63
2023-03-06T06:36:46.295Z,13.60
2023-03-06T06:39:18.547Z,14.50
2023-03-06T06:41:59.813Z,13.82
2023-03-06T06:44:32.801Z,14.35
2023-03-06T06:47:21.922Z,15.38
2023-03-06T06:49:51.201Z,12.90
2023-03-06T06:52:19.009Z,14.63
2023-03-06T06:54:46.229Z,14.40
2023-03-06T06:57:13.442Z,13.55
2023-03-06T06:59:40.394Z,14.05
2023-03-06T07:02:07.572Z,13.73
2023-03-06T07:04:34.492Z,14.20
2023-03-06T07:07:01.457Z,14.18
2023-03-06T07:09:31.022Z,12.85
2023-03-06T07:11:58.491Z,14.65
2023-03-06T07:14:25.442Z,13.73
2023-03-06T07:16:52.452Z,14.10
2023-03-06T07:19:19.449Z,14.10
2023-03-06T07:21:46.342Z,13.20
2023-03-06T07:24:13.351Z,13.95
2023-03-06T07:26:40.210Z,13.02
2023-03-06T07:29:07.117Z,13.40
2023-03-06T07:31:34.133Z,13.85
2023-03-06T07:34:03.787Z,13.75
2023-03-06T07:36:32.478Z,15.73
2023-03-06T07:38:59.361Z,14.50
2023-03-06T07:41:26.925Z,15.25
2023-03-06T07:43:53.816Z,13.88
2023-03-06T07:46:20.782Z,14.25
2023-03-06T07:48:47.671Z,15.05
2023-03-06T07:51:20.611Z,14.80
2023-03-06T07:53:48.989Z,14.13
2023-03-06T07:56:16.195Z,12.40
2023-03-06T07:58:45.803Z,14.20
2023-03-06T08:01:18.334Z,14.48
2023-03-06T08:03:46.069Z,15.05
2023-03-06T08:06:17.653Z,15.52
2023-03-06T08:08:46.587Z,15.70
2023-03-06T08:11:15.725Z,14.55
2023-03-06T08:13:43.129Z,14.48
2023-03-06T08:16:10.906Z,15.32
2023-03-06T08:18:39.964Z,13.80
2023-03-06T08:21:13.438Z,14.68
2023-03-06T08:23:41.476Z,15.23
2023-03-06T08:26:12.122Z,13.90
2023-03-06T08:28:39.497Z,14.63
2023-03-06T08:31:21.635Z,14.85
2023-03-06T08:33:48.712Z,15.20
2023-03-06T08:36:15.740Z,15.77
2023-03-06T08:38:42.687Z,14.52
2023-03-06T08:41:09.909Z,14.63
2023-03-06T08:43:36.870Z,15.13
2023-03-06T08:46:03.912Z,15.50
2023-03-06T08:48:30.899Z,16.65
2023-03-06T08:50:57.981Z,15.15
2023-03-06T08:53:40.406Z,14.85
2023-03-06T08:56:25.844Z,17.77
2023-03-06T08:58:53.783Z,16.65
2023-03-06T09:01:24.392Z,16.90
2023-03-06T09:03:54.803Z,15.57
2023-03-06T09:06:22.224Z,16.48
2023-03-06T09:08:52.212Z,16.02
2023-03-06T09:14:15.943Z,16.88
2023-03-06T09:16:43.018Z,16.40
2023-03-06T09:19:10.637Z,16.35
2023-03-06T09:21:37.550Z,17.00
2023-03-06T09:24:04.687Z,17.50
2023-03-06T09:26:45.001Z,16.52
2023-03-06T09:29:13.003Z,17.58
2023-03-06T09:31:40.231Z,18.50
2023-03-06T09:34:07.164Z,17.10
2023-03-06T09:36:45.696Z,17.63
2023-03-06T09:39:20.608Z,19.75
2023-03-06T09:41:50.242Z,17.23
2023-03-06T09:44:20.538Z,18.60
2023-03-06T09:47:00.287Z,17.27
2023-03-06T09:49:44.793Z,17.17
2023-03-06T09:52:17.684Z,18.23
2023-03-06T09:54:50.024Z,17.40
2023-03-06T09:57:58.854Z,17.88
2023-03-06T10:00:34.000Z,16.90
2023-03-06T10:03:24.849Z,17.58
2023-03-06T10:06:21.107Z,18.95
2023-03-06T10:09:15.795Z,18.08
2023-03-06T10:11:55.854Z,19.75
2023-03-06T10:14:35.079Z,18.40
2023-03-06T10:17:02.589Z,18.02
2023-03-06T10:19:36.374Z,17.50
2023-03-06T10:22:33.219Z,17.47
2023-03-06T10:25:28.497Z,17.48
2023-03-06T10:30:36.885Z,13.95
2023-03-06T10:33:42.676Z,16.05
2023-03-06T10:36:16.462Z,15.02
2023-03-06T10:38:45.170Z,15.17
2023-03-06T10:41:12.007Z,14.30
2023-03-06T10:44:06.786Z,14.98
2023-03-06T10:46:37.328Z,14.52
2023-03-06T10:49:23.544Z,15.10
2023-03-06T10:52:18.924Z,14.43
2023-03-06T10:54:46.092Z,12.93
2023-03-06T10:57:30.299Z,13.02
2023-03-06T11:00:01.078Z,14.65
2023-03-06T11:02:41.203Z,13.40
2023-03-06T11:05:21.182Z,14.70
2023-03-06T11:07:57.127Z,13.50
2023-03-06T11:10:24.671Z,13.07
2023-03-06T11:13:19.349Z,14.02
2023-03-06T11:16:06.633Z,13.70
2023-03-06T11:18:42.946Z,13.13
2023-03-06T11:21:34.375Z,13.48
2023-03-06T11:24:21.750Z,13.93
2023-03-06T11:26:56.266Z,13.27
2023-03-06T11:29:43.964Z,14.18
2023-03-06T11:32:39.211Z,14.05
2023-03-06T11:35:12.395Z,13.45
2023-03-06T11:37:58.558Z,13.82
2023-03-06T11:40:37.474Z,13.77
2023-03-06T11:43:23.553Z,13.57
2023-03-06T11:45:57.046Z,15.40
2023-03-06T11:48:43.803Z,14.63
2023-03-06T11:51:27.022Z,14.43
2023-03-06T11:53:55.125Z,15.20
2023-03-06T11:56:32.056Z,14.68
2023-03-06T11:59:08.110Z,14.35
2023-03-06T12:01:47.671Z,15.82
2023-03-06T12:04:37.408Z,14.13
2023-03-06T12:07:21.113Z,13.13
2023-03-06T12:10:12.897Z,13.00
2023-03-06T12:13:11.568Z,13.80
2023-03-06T12:15:52.008Z,13.45
2023-03-06T12:19:00.781Z,14.07
2023-03-06T12:21:44.906Z,14.48
2023-03-06T12:24:24.118Z,14.63
2023-03-06T12:26:53.889Z,14.90
2023-03-06T12:30:05.850Z,15.20
2023-03-06T12:32:56.013Z,15.15
2023-03-06T12:35:34.914Z,15.95
2023-03-06T12:38:26.043Z,14.55
2023-03-06T12:41:08.224Z,15.23
2023-03-06T12:43:50.281Z,14.05
2023-03-06T12:46:24.896Z,11.70
2023-03-06T12:51:59.903Z,14.38
2023-03-06T12:54:31.051Z,14.35
2023-03-06T12:57:00.497Z,13.93
2023-03-06T12:59:48.633Z,15.57
2023-03-06T13:02:30.296Z,14.05
2023-03-06T13:05:03.672Z,14.13
2023-03-06T13:07:42.619Z,13.82
2023-03-06T13:10:48.121Z,13.00
2023-03-06T13:13:35.531Z,14.00
2023-03-06T13:16:12.085Z,11.85
2023-03-06T13:18:42.042Z,13.43
2023-03-06T13:21:42.452Z,12.65
2023-03-06T13:24:26.536Z,12.63
2023-03-06T13:26:58.325Z,13.63
2023-03-06T13:29:37.116Z,13.25
2023-03-06T13:32:04.327Z,13.90
2023-03-06T13:34:31.436Z,13.07
2023-03-06T13:37:17.137Z,12.43
2023-03-06T13:39:57.002Z,10.95
2023-03-06T13:42:29.865Z,13.68
2023-03-06T13:45:06.636Z,11.93
2023-03-06T13:48:30.352Z,10.77
2023-03-06T13:50:48.077Z,10.27
2023-03-06T13:53:26.799Z,9.80
2023-03-06T13:56:03.764Z,10.15
2023-03-06T13:59:02.608Z,10.02
2023-03-06T14:02:00.625Z,8.65
2023-03-06T14:04:38.745Z,7.47
2023-03-06T14:07:08.579Z,10.18
2023-03-06T14:09:43.692Z,9.23
2023-03-06T14:12:39.502Z,10.13
2023-03-06T14:15:17.938Z,9.00
2023-03-06T14:18:01.674Z,9.48
2023-03-06T14:20:35.121Z,9.93
2023-03-06T14:23:15.403Z,9.45
2023-03-06T14:25:44.022Z,9.40
2023-03-06T14:28:26.255Z,9.93
2023-03-06T14:30:57.602Z,8.30
2023-03-06T14:33:50.752Z,8.68
2023-03-06T14:36:21.034Z,9.93
2023-03-06T14:39:05.080Z,10.23
2023-03-06T14:41:34.708Z,10.45
2023-03-06T14:44:23.823Z,11.18
2023-03-06T14:47:11.671Z,14.23
2023-03-06T14:49:38.570Z,9.98
2023-03-06T14:52:05.527Z,10.63
2023-03-06T14:54:37.029Z,10.65
2023-03-06T14:57:13.406Z,10.45
2023-03-06T14:59:56.047Z,10.30
2023-03-06T15:02:28.335Z,12.80
2023-03-06T15:05:00.257Z,10.10
2023-03-06T15:07:30.674Z,10.57
2023-03-06T15:09:59.044Z,10.27
2023-03-06T15:12:33.980Z,9.75
2023-03-06T15:15:08.111Z,11.35
2023-03-06T15:17:45.004Z,9.93
2023-03-06T15:20:38.201Z,9.65
2023-03-06T15:23:17.202Z,9.52
2023-03-06T15:26:33.430Z,10.05
2023-03-06T15:29:08.912Z,10.35
2023-03-06T15:31:39.300Z,11.25
2023-03-06T15:34:11.792Z,10.23
2023-03-06T15:36:41.261Z,10.65
2023-03-06T15:39:28.235Z,11.00
2023-03-06T15:42:04.929Z,10.55
2023-03-06T15:44:32.931Z,10.75
2023-03-06T15:47:08.400Z,10.93
2023-03-06T15:49:38.388Z,10.07
2023-03-06T15:52:08.714Z,10.23
2023-03-06T15:54:36.135Z,10.65
2023-03-06T15:57:05.513Z,9.80
2023-03-06T15:59:43.810Z,11.10
2023-03-06T16:02:22.046Z,9.15
2023-03-06T16:04:49.920Z,10.32
2023-03-06T16:07:16.918Z,10.57
2023-03-06T16:09:44.402Z,11.13
2023-03-06T16:12:21.621Z,11.18
2023-03-06T16:14:49.881Z,11.70
2023-03-06T16:17:17.591Z,10.98
2023-03-06T16:19:44.984Z,10.50
2023-03-06T16:22:12.262Z,9.88
2023-03-06T16:24:39.281Z,10.57
2023-03-06T16:27:07.398Z,6.57
2023-03-06T16:29:35.254Z,9.70
2023-03-06T16:32:02.357Z,10.20
2023-03-06T16:34:29.354Z,8.98
2023-03-06T16:36:56.379Z,9.23
2023-03-06T16:39:24.506Z,11.38
2023-03-06T16:41:51.954Z,10.30
2023-03-06T16:44:19.574Z,10.77
2023-03-06T16:46:48.798Z,12.80
2023-03-06T16:49:24.614Z,15.60
2023-03-06T16:51:52.385Z,15.75
2023-03-06T16:54:20.125Z,16.27
2023-03-06T16:56:47.148Z,16.13
2023-03-06T16:59:14.084Z,17.33
2023-03-06T17:01:45.091Z,18.27
2023-03-06T17:04:12.928Z,17.77
2023-03-06T17:06:41.884Z,17.35
2023-03-06T17:09:11.129Z,20.25
2023-03-06T17:11:43.149Z,18.23
2023-03-06T17:14:10.437Z,18.73
2023-03-06T17:16:40.369Z,18.42
2023-03-06T17:19:08.586Z,16.90
2023-03-06T17:21:38.855Z,19.20
2023-03-06T17:24:06.532Z,15.38
2023-03-06T17:26:33.857Z,16.55
2023-03-06T17:29:00.871Z,18.13
2023-03-06T17:31:28.562Z,18.15
2023-03-06T17:34:00.318Z,17.73
2023-03-06T17:36:28.834Z,17.67
2023-03-06T17:39:00.442Z,18.08
2023-03-06T17:41:27.797Z,17.23
2023-03-06T17:44:01.934Z,18.10
2023-03-06T17:46:29.239Z,17.85
2023-03-06T17:48:56.319Z,16.98
2023-03-06T17:51:23.430Z,17.60
2023-03-06T17:53:52.323Z,16.63
2023-03-06T17:56:19.527Z,15.57
2023-03-06T17:58:46.442Z,17.58
2023-03-06T18:01:19.880Z,17.05
2023-03-06T18:03:49.680Z,15.55
2023-03-06T18:06:17.991Z,14.60
2023-03-06T18:08:46.044Z,14.18
2023-03-06T18:11:13.280Z,15.95
2023-03-06T18:13:42.759Z,15.90
2023-03-06T18:16:12.389Z,16.10
2023-03-06T18:18:39.299Z,16.15
2023-03-06T18:21:09.314Z,16.90
2023-03-06T18:23:37.877Z,16.00
2023-03-06T18:26:13.274Z,17.27
2023-03-06T18:28:42.663Z,18.75
2023-03-06T18:31:27.872Z,17.13
2023-03-06T18:33:57.881Z,16.23
2023-03-06T18:36:26.967Z,16.70
2023-03-06T18:38:54.726Z,17.70
2023-03-06T18:41:22.677Z,18.48
2023-03-06T18:43:54.419Z,17.63
2023-03-06T18:46:22.782Z,17.83
2023-03-06T18:48:50.309Z,18.23
2023-03-06T18:51:19.404Z,17.15
2023-03-06T18:53:46.657Z,17.88
2023-03-06T18:56:20.537Z,18.35
2023-03-06T18:58:48.581Z,20.07
2023-03-06T19:01:15.656Z,19.88
2023-03-06T19:03:43.056Z,18.00
2023-03-06T19:06:12.766Z,18.13
2023-03-06T19:08:40.371Z,17.88
2023-03-06T19:11:15.457Z,17.45
2023-03-06T19:13:43.492Z,17.05
2023-03-06T19:16:18.500Z,18.48
2023-03-06T19:18:45.518Z,18.08
2023-03-06T19:21:14.870Z,18.23
2023-03-06T19:23:42.607Z,18.63
2023-03-06T19:26:10.226Z,19.90
2023-03-06T19:28:39.486Z,18.35
2023-03-06T19:31:09.902Z,19.02
2023-03-06T19:33:38.120Z,18.60
2023-03-06T19:36:07.945Z,20.02
2023-03-06T19:38:35.051Z,19.17
2023-03-06T19:41:02.221Z,19.42
2023-03-06T19:43:30.856Z,20.00
2023-03-06T19:45:57.941Z,20.70
2023-03-06T19:48:25.097Z,20.10
2023-03-06T19:50:51.985Z,19.75
2023-03-06T19:53:19.125Z,20.42
2023-03-06T19:55:46.028Z,21.55
2023-03-06T19:58:13.139Z,20.65
2023-03-06T20:00:41.562Z,20.42
2023-03-06T20:03:08.527Z,19.75
2023-03-06T20:05:35.425Z,22.25
2023-03-06T20:08:02.422Z,21.75
2023-03-06T20:10:29.306Z,21.58
2023-03-06T20:12:56.362Z,21.42
2023-03-06T20:15:23.502Z,26.35
2023-03-06T20:17:50.473Z,44.95
2023-03-06T20:20:17.832Z,50.97
2023-03-06T20:22:45.072Z,36.10
2023-03-06T20:25:12.136Z,30.42
2023-03-06T20:27:39.827Z,25.60
2023-03-06T20:30:08.154Z,22.38
2023-03-06T20:32:35.915Z,22.90
2023-03-06T20:35:03.636Z,22.35
2023-03-06T20:37:30.762Z,21.65
2023-03-06T20:39:57.753Z,22.27
2023-03-06T20:42:24.779Z,21.83
2023-03-06T20:44:51.652Z,21.48
2023-03-06T20:47:18.704Z,22.63
2023-03-06T20:49:45.822Z,22.92
2023-03-06T20:52:12.852Z,23.58
2023-03-06T20:54:39.774Z,21.13
2023-03-06T20:57:06.795Z,22.92
2023-03-06T20:59:33.803Z,23.25
2023-03-06T21:02:00.748Z,21.70
2023-03-06T21:04:27.911Z,21.40
2023-03-06T21:06:55.018Z,22.95
2023-03-06T21:09:22.355Z,21.65
2023-03-06T21:11:49.737Z,19.60
2023-03-06T21:14:17.047Z,20.25
2023-03-06T21:16:44.602Z,19.92
2023-03-06T21:19:12.378Z,18.85
2023-03-06T21:21:39.539Z,19.75
2023-03-06T21:24:06.678Z,20.45
2023-03-06T21:26:36.199Z,21.00
2023-03-06T21:29:03.976Z,20.95
2023-03-06T21:31:31.414Z,20.75
2023-03-06T21:33:59.526Z,22.33
2023-03-06T21:36:27.215Z,21.30
2023-03-06T21:38:54.788Z,21.20
2023-03-06T21:41:25.097Z,21.70
2023-03-06T21:43:56.853Z,21.77
2023-03-06T21:46:24.969Z,20.55
2023-03-06T21:48:52.218Z,21.25
2023-03-06T21:51:21.006Z,25.73
2023-03-06T21:53:48.486Z,22.10
2023-03-06T21:56:18.704Z,22.63
2023-03-06T21:58:49.896Z,22.15
2023-03-06T22:01:28.512Z,23.00
2023-03-06T22:03:56.134Z,22.63
2023-03-06T22:06:25.526Z,23.70
2023-03-06T22:08:52.812Z,22.35
2023-03-06T22:11:22.323Z,23.88
2023-03-06T22:13:50.685Z,22.77
2023-03-06T22:16:18.517Z,22.30
2023-03-06T22:18:48.028Z,24.13
2023-03-06T22:21:18.565Z,22.60
2023-03-06T22:23:49.818Z,23.85
2023-03-06T22:26:16.697Z,22.95
2023-03-06T22:28:46.539Z,24.48
2023-03-06T22:31:17.036Z,26.33
2023-03-06T22:33:44.779Z,25.17
2023-03-06T22:36:14.477Z,25.45
2023-03-06T22:38:43.166Z,25.27
2023-03-06T22:41:11.630Z,23.48
2023-03-06T22:43:39.031Z,24.17
2023-03-06T22:46:08.940Z,23.60
2023-03-06T22:48:36.492Z,24.02
2023-03-06T22:51:13.330Z,25.17
2023-03-06T22:53:41.118Z,24.40
2023-03-06T22:56:11.533Z,24.50
2023-03-06T22:58:39.244Z,23.25
2023-03-06T23:01:16.563Z,24.48
2023-03-06T23:03:46.582Z,24.75
2023-03-06T23:06:16.801Z,24.80
2023-03-06T23:08:45.379Z,24.73
2023-03-06T23:11:32.119Z,24.42
2023-03-06T23:14:27.601Z,25.85
2023-03-06T23:17:34.083Z,25.10
2023-03-06T23:21:28.005Z,25.20
2023-03-06T23:24:43.903Z,26.38
2023-03-06T23:27:25.906Z,24.92
2023-03-06T23:30:38.105Z,25.55
2023-03-06T23:39:37.430Z,25.38
2023-03-06T23:45:52.118Z,24.80
2023-03-06T23:48:59.995Z,24.90
2023-03-06T23:51:45.229Z,25.08
2023-03-06T23:54:25.116Z,27.27
2023-03-06T23:57:30.465Z,26.50
